Time;durP1;ratioP1;P1;durP2;ratioP2;P2;SDS_P1;SDS_P2;PMS_P1;PMS_P2;Temp;Humidity;BMP_temperature;BMP_pressure;BME280_temperature;BME280_humidity;BME280_pressure;Samples;Min_cycle;Max_cycle;Signal;HPM_P1;HPM_P2
2021/11/15 00:02:01;;;;;;;;;;;;;;;13.53;62.62;101919.75;4867648;28;97990;-64
2021/11/15 00:04:27;;;;;;;;;;;;;;;13.51;62.84;101920.78;4849346;28;98636;-68
2021/11/15 00:06:53;;;;;;;;;;;;;;;13.51;62.70;101926.22;4866560;28;126871;-69
2021/11/15 00:09:20;;;;;;;;;;;;;;;13.50;62.62;101930.00;4849654;28;98000;-69
2021/11/15 00:11:46;;;;;;;;;;;;;;;13.51;62.53;101937.03;4865710;28;98519;-59
2021/11/15 00:14:11;;;;;;;;;;;;;;;13.50;62.59;101934.59;4867189;28;102317;-60
2021/11/15 00:16:37;;;;;;;;;;;;;;;13.51;62.79;101930.81;4871261;28;127645;-59
2021/11/15 00:19:03;;;;;;;;;;;;;;;13.51;62.84;101930.81;4884512;28;121571;-59
2021/11/15 00:21:29;;;;;;;;;;;;;;;13.49;62.52;101925.66;4847723;28;128924;-59
2021/11/15 00:23:55;;;;;;;;;;;;;;;13.49;62.55;101935.69;4848638;28;127344;-59
2021/11/15 00:26:21;;;;;;;;;;;;;;;13.49;62.57;101932.97;4847221;28;126075;-59
2021/11/15 00:28:47;;;;;;;;;;;;;;;13.48;62.69;101923.22;4847315;28;121948;-69
2021/11/15 00:31:13;;;;;;;;;;;;;;;13.48;62.34;101929.44;4866996;28;98456;-68
2021/11/15 00:33:39;;;;;;;;;;;;;;;13.49;62.56;101935.69;4848506;28;100069;-68
2021/11/15 00:36:05;;;;;;;;;;;;;;;13.47;62.44;101938.63;4848202;28;99478;-68
2021/11/15 00:38:31;;;;;;;;;;;;;;;13.47;62.78;101933.19;4864860;28;124116;-59
2021/11/15 00:40:57;;;;;;;;;;;;;;;13.47;62.46;101930.50;4863090;28;128123;-59
2021/11/15 00:43:23;;;;;;;;;;;;;;;13.49;62.64;101938.38;4865384;28;98418;-68
2021/11/15 00:45:49;;;;;;;;;;;;;;;13.47;62.49;101938.63;4848688;28;127180;-69
2021/11/15 00:48:14;;;;;;;;;;;;;;;13.48;62.17;101931.34;4846548;28;122592;-59
2021/11/15 00:50:40;;;;;;;;;;;;;;;13.47;62.36;101924.25;4846817;28;127382;-68
2021/11/15 00:53:06;;;;;;;;;;;;;;;13.47;62.65;101926.97;4864850;28;127562;-68
2021/11/15 00:55:33;;;;;;;;;;;;;;;13.46;62.59;101931.56;4864817;28;98582;-59
2021/11/15 00:58:00;;;;;;;;;;;;;;;13.46;62.65;101925.34;4868683;28;98513;-59
2021/11/15 01:00:27;;;;;;;;;;;;;;;13.47;62.13;101932.38;4847238;28;121938;-69
2021/11/15 01:02:53;;;;;;;;;;;;;;;13.47;62.30;101926.97;4863186;28;99969;-59
2021/11/15 01:05:19;;;;;;;;;;;;;;;13.45;62.42;101927.22;4883179;28;98094;-59
2021/11/15 01:07:45;;;;;;;;;;;;;;;13.45;62.48;101932.66;4884387;28;122249;-59
2021/11/15 01:10:12;;;;;;;;;;;;;;;13.45;62.64;101926.41;4867148;28;98297;-59
2021/11/15 01:12:38;;;;;;;;;;;;;;;13.44;62.42;101925.59;4882157;28;112078;-60
2021/11/15 01:15:09;;;;;;;;;;;;;;;13.44;62.67;101922.91;4882412;28;123466;-68
2021/11/15 01:17:35;;;;;;;;;;;;;;;13.44;62.23;101919.34;4860962;28;102284;-59
2021/11/15 01:20:02;;;;;;;;;;;;;;;13.43;62.54;101915.81;4863638;28;123606;-59
2021/11/15 01:22:28;;;;;;;;;;;;;;;13.43;62.28;101915.81;4864099;28;119035;-68
2021/11/15 01:24:54;;;;;;;;;;;;;;;13.43;62.22;101921.22;4865415;28;125930;-68
2021/11/15 01:27:20;;;;;;;;;;;;;;;13.43;62.55;101925.84;4866713;28;110407;-58
2021/11/15 01:29:46;;;;;;;;;;;;;;;13.43;62.29;101918.53;4863319;28;98548;-59
2021/11/15 01:32:14;;;;;;;;;;;;;;;13.41;62.21;101922.56;4863518;28;119109;-59
2021/11/15 01:34:40;;;;;;;;;;;;;;;13.41;62.36;101926.09;4863801;28;126322;-58
2021/11/15 01:37:06;;;;;;;;;;;;;;;13.41;62.17;101925.28;4846881;28;123230;-68
2021/11/15 01:39:31;;;;;;;;;;;;;;;13.40;62.55;101927.19;4864465;28;128177;-68
2021/11/15 01:41:57;;;;;;;;;;;;;;;13.40;62.19;101927.19;4863405;28;128397;-68
2021/11/15 01:44:23;;;;;;;;;;;;;;;13.39;62.43;101928.22;4864698;28;125734;-68
2021/11/15 01:46:49;;;;;;;;;;;;;;;13.39;62.44;101920.09;4864006;28;121778;-59
2021/11/15 01:49:15;;;;;;;;;;;;;;;13.39;62.42;101932.81;4865037;28;99777;-62
2021/11/15 01:51:41;;;;;;;;;;;;;;;13.39;62.18;101927.41;4848212;28;98283;-59
2021/11/15 01:54:07;;;;;;;;;;;;;;;13.39;62.18;101922.81;4845423;28;128402;-59
2021/11/15 01:56:33;;;;;;;;;;;;;;;13.38;62.32;101923.06;4846554;28;97929;-60
2021/11/15 01:59:01;;;;;;;;;;;;;;;13.39;62.35;101920.09;4848248;28;108160;-69
2021/11/15 02:01:27;;;;;;;;;;;;;;;13.39;62.01;101922.00;4846719;28;99356;-60
2021/11/15 02:03:53;;;;;;;;;;;;;;;13.38;62.27;101917.66;4846142;28;122962;-68
2021/11/15 02:06:19;;;;;;;;;;;;;;;13.38;62.18;101920.34;4863127;28;123261;-68
2021/11/15 02:08:45;;;;;;;;;;;;;;;13.38;62.16;101925.78;4865248;28;98260;-59
2021/11/15 02:11:11;;;;;;;;;;;;;;;13.37;62.14;101914.13;4864264;28;98605;-68
2021/11/15 02:13:37;;;;;;;;;;;;;;;13.36;62.45;101912.50;4863256;28;125728;-58
2021/11/15 02:16:04;;;;;;;;;;;;;;;13.37;62.31;101918.72;4868841;28;98076;-58
2021/11/15 02:18:29;;;;;;;;;;;;;;;13.37;62.30;101922.25;4849184;28;121844;-68
2021/11/15 02:21:00;;;;;;;;;;;;;;;13.36;61.94;101917.91;4850149;28;127052;-68
2021/11/15 02:23:34;;;;;;;;;;;;;;;13.36;62.05;101917.91;4849929;28;98088;-68
2021/11/15 02:26:01;;;;;;;;;;;;;;;13.36;62.16;101922.47;4866733;28;117777;-68
2021/11/15 02:28:32;;;;;;;;;;;;;;;13.35;61.94;101912.72;4848605;28;122310;-58
2021/11/15 02:30:58;;;;;;;;;;;;;;;13.35;62.18;101915.44;4866506;28;124508;-59
2021/11/15 02:33:25;;;;;;;;;;;;;;;13.33;62.13;101913.00;4867743;28;127016;-68
2021/11/15 02:35:51;;;;;;;;;;;;;;;13.35;62.28;101915.44;4868505;28;98093;-68
2021/11/15 02:38:17;;;;;;;;;;;;;;;13.33;62.15;101909.47;4848476;28;127035;-59
2021/11/15 02:40:43;;;;;;;;;;;;;;;13.34;61.91;101909.22;4848289;28;127937;-68
2021/11/15 02:43:09;;;;;;;;;;;;;;;13.34;61.98;101911.91;4868212;28;98108;-68
2021/11/15 02:45:35;;;;;;;;;;;;;;;13.33;62.26;101915.69;4868364;28;111819;-59
2021/11/15 02:48:01;;;;;;;;;;;;;;;13.31;62.27;101904.28;4866853;28;126291;-68
2021/11/15 02:50:28;;;;;;;;;;;;;;;13.33;62.23;101913.00;4866114;28;128038;-59
2021/11/15 02:52:56;;;;;;;;;;;;;;;13.33;61.85;101909.47;4849907;28;98263;-59
2021/11/15 02:55:22;;;;;;;;;;;;;;;13.31;62.18;101920.53;4866697;28;120475;-58
2021/11/15 02:57:48;;;;;;;;;;;;;;;13.31;62.03;101914.31;4848482;28;98710;-59
2021/11/15 03:00:18;;;;;;;;;;;;;;;13.32;61.98;101922.16;4849223;28;98489;-59
2021/11/15 03:02:44;;;;;;;;;;;;;;;13.31;62.22;101917.81;4849211;28;97828;-59
2021/11/15 03:05:10;;;;;;;;;;;;;;;13.30;62.01;101918.91;4866423;28;98058;-59
2021/11/15 03:07:36;;;;;;;;;;;;;;;13.31;62.17;101914.31;4865593;28;122333;-68
2021/11/15 03:10:02;;;;;;;;;;;;;;;13.31;62.52;101908.88;4865996;28;128095;-59
2021/11/15 03:12:32;;;;;;;;;;;;;;;13.29;61.99;101909.16;4866154;28;119936;-59
2021/11/15 03:14:58;;;;;;;;;;;;;;;13.29;61.96;101911.84;4866896;28;103285;-59
2021/11/15 03:17:24;;;;;;;;;;;;;;;13.31;62.19;101911.59;4866437;28;127355;-59
2021/11/15 03:19:50;;;;;;;;;;;;;;;13.30;61.89;101901.84;4866574;28;101061;-68
2021/11/15 03:22:16;;;;;;;;;;;;;;;13.30;62.11;101901.84;4866382;28;127869;-67
2021/11/15 03:24:42;;;;;;;;;;;;;;;13.30;61.86;101901.84;4866586;28;97944;-59
2021/11/15 03:27:09;;;;;;;;;;;;;;;13.29;62.26;101894.78;4863756;28;127966;-59
2021/11/15 03:29:35;;;;;;;;;;;;;;;13.29;61.91;101898.31;4866578;28;98927;-68
2021/11/15 03:32:01;;;;;;;;;;;;;;;13.28;62.12;101899.38;4847122;28;127946;-59
2021/11/15 03:34:26;;;;;;;;;;;;;;;13.29;62.01;101894.78;4865713;28;98145;-59
2021/11/15 03:36:52;;;;;;;;;;;;;;;13.29;61.99;101903.72;4848775;28;128118;-59
2021/11/15 03:39:18;;;;;;;;;;;;;;;13.27;62.05;101893.13;4865615;28;127972;-59
2021/11/15 03:41:44;;;;;;;;;;;;;;;13.27;62.11;101900.44;4847937;28;126733;-59
2021/11/15 03:44:10;;;;;;;;;;;;;;;13.28;62.10;101907.47;4866949;28;97975;-68
2021/11/15 03:46:37;;;;;;;;;;;;;;;13.27;61.85;101900.44;4866216;28;110117;-59
2021/11/15 03:49:03;;;;;;;;;;;;;;;13.29;62.13;101901.03;4866502;28;98805;-69
2021/11/15 03:51:29;;;;;;;;;;;;;;;13.28;61.91;101902.06;4831960;28;128887;-59
2021/11/15 03:53:55;;;;;;;;;;;;;;;13.28;61.91;101902.06;4866437;28;98785;-59
2021/11/15 03:56:24;;;;;;;;;;;;;;;13.27;61.87;101897.72;4848494;28;100645;-69
2021/11/15 03:58:50;;;;;;;;;;;;;;;13.26;61.68;101899.63;4848360;28;98054;-59
2021/11/15 04:01:16;;;;;;;;;;;;;;;13.27;61.77;101892.31;4866101;28;98020;-60
2021/11/15 04:03:44;;;;;;;;;;;;;;;13.27;61.95;101895.03;4849651;28;98022;-68
2021/11/15 04:06:21;;;;;;;;;;;;;;;13.27;62.02;101885.00;4865969;28;98072;-59
2021/11/15 04:08:47;;;;;;;;;;;;;;;13.27;62.13;101889.59;4867262;28;98661;-69
2021/11/15 04:11:13;;;;;;;;;;;;;;;13.25;62.01;101887.16;4848001;28;124405;-68
2021/11/15 04:13:40;;;;;;;;;;;;;;;13.27;61.66;101889.59;4867207;28;97712;-59
2021/11/15 04:16:09;;;;;;;;;;;;;;;13.26;62.02;101891.50;4867495;28;97809;-59
2021/11/15 04:18:36;;;;;;;;;;;;;;;13.26;61.84;101899.63;4848040;28;107245;-59
2021/11/15 04:21:03;;;;;;;;;;;;;;;13.27;61.77;101895.03;4847770;28;97906;-68
2021/11/15 04:23:28;;;;;;;;;;;;;;;13.27;61.99;101903.16;4865326;28;98146;-59
2021/11/15 04:25:54;;;;;;;;;;;;;;;13.27;61.89;101895.03;4865982;28;126849;-68
2021/11/15 04:28:20;;;;;;;;;;;;;;;13.26;61.62;101898.81;4871945;28;98736;-68
2021/11/15 04:30:46;;;;;;;;;;;;;;;13.26;61.98;101898.81;4884908;28;127980;-59
2021/11/15 04:33:12;;;;;;;;;;;;;;;13.27;61.76;101895.03;4866281;28;97837;-59
2021/11/15 04:35:38;;;;;;;;;;;;;;;13.27;62.05;101892.31;4864474;28;127137;-60
2021/11/15 04:38:05;;;;;;;;;;;;;;;13.26;61.91;101898.81;4848243;28;98271;-60
2021/11/15 04:40:31;;;;;;;;;;;;;;;13.26;61.59;101891.50;4864763;28;97955;-69
2021/11/15 04:42:57;;;;;;;;;;;;;;;13.26;61.82;101894.22;4866138;28;97792;-59
2021/11/15 04:45:23;;;;;;;;;;;;;;;13.26;61.85;101887.97;4866418;28;98410;-59
2021/11/15 04:47:49;;;;;;;;;;;;;;;13.27;62.03;101889.59;4880548;28;128497;-59
2021/11/15 04:50:15;;;;;;;;;;;;;;;13.27;61.96;101889.59;4884372;28;97975;-59
2021/11/15 04:52:41;;;;;;;;;;;;;;;13.27;61.78;101887.72;4883355;28;106260;-59
2021/11/15 04:55:08;;;;;;;;;;;;;;;13.27;62.09;101884.19;4881367;28;128075;-68
2021/11/15 04:57:34;;;;;;;;;;;;;;;13.26;61.67;101883.38;4871278;28;99231;-69
2021/11/15 05:00:00;;;;;;;;;;;;;;;13.26;61.92;101883.38;4864490;28;126173;-59
2021/11/15 05:02:29;;;;;;;;;;;;;;;13.26;62.00;101886.09;4866831;28;97855;-67
2021/11/15 05:04:55;;;;;;;;;;;;;;;13.26;61.78;101879.84;4881828;28;127855;-60
2021/11/15 05:07:21;;;;;;;;;;;;;;;13.26;61.96;101883.38;4883159;28;128338;-68
2021/11/15 05:09:47;;;;;;;;;;;;;;;13.26;61.74;101882.56;4865695;28;127665;-67
2021/11/15 05:12:13;;;;;;;;;;;;;;;13.26;61.69;101886.09;4883672;28;122421;-68
2021/11/15 05:14:39;;;;;;;;;;;;;;;13.24;62.00;101873.84;4882814;28;127708;-68
2021/11/15 05:17:05;;;;;;;;;;;;;;;13.25;61.86;101873.63;4884679;28;98553;-67
2021/11/15 05:19:31;;;;;;;;;;;;;;;13.25;61.91;101875.53;4883523;28;121269;-68
2021/11/15 05:21:57;;;;;;;;;;;;;;;13.25;61.81;101870.91;4886104;28;97911;-67
2021/11/15 05:24:23;;;;;;;;;;;;;;;13.24;61.72;101874.69;4885076;28;127497;-68
2021/11/15 05:26:48;;;;;;;;;;;;;;;13.25;61.94;101878.22;4885503;28;128888;-68
2021/11/15 05:29:14;;;;;;;;;;;;;;;13.23;61.76;101873.03;4885776;28;97902;-68
2021/11/15 05:31:40;;;;;;;;;;;;;;;13.24;61.86;101880.13;4862403;28;123279;-68
2021/11/15 05:34:06;;;;;;;;;;;;;;;13.23;61.81;101880.34;4867126;28;126909;-68
2021/11/15 05:36:32;;;;;;;;;;;;;;;13.23;61.61;101883.06;4867406;28;128657;-69
2021/11/15 05:38:58;;;;;;;;;;;;;;;13.24;61.62;101884.69;4867414;28;127436;-68
2021/11/15 05:41:24;;;;;;;;;;;;;;;13.23;61.89;101888.47;4848566;28;98129;-68
2021/11/15 05:43:50;;;;;;;;;;;;;;;13.22;61.58;101884.91;4894306;28;106665;-68
2021/11/15 05:46:16;;;;;;;;;;;;;;;13.23;61.95;101888.47;4886752;28;127665;-68
2021/11/15 05:48:42;;;;;;;;;;;;;;;13.23;61.84;101893.88;4896824;28;108662;-68
2021/11/15 05:51:08;;;;;;;;;;;;;;;13.22;61.88;101882.22;4898351;28;122554;-68
2021/11/15 05:53:36;;;;;;;;;;;;;;;13.23;61.83;101896.59;4906905;28;116348;-68
2021/11/15 05:56:03;;;;;;;;;;;;;;;13.23;61.88;101902.00;4906410;28;98717;-69
2021/11/15 05:58:29;;;;;;;;;;;;;;;13.22;61.65;101895.75;4889785;28;97808;-68
2021/11/15 06:00:56;;;;;;;;;;;;;;;13.22;61.62;101900.34;4875774;28;122639;-68
2021/11/15 06:03:23;;;;;;;;;;;;;;;13.23;61.95;101897.41;4874047;28;99116;-68
2021/11/15 06:05:49;;;;;;;;;;;;;;;13.21;61.88;101904.13;4888456;28;98633;-68
2021/11/15 06:08:16;;;;;;;;;;;;;;;13.21;61.80;101902.25;4873120;28;100377;-70
2021/11/15 06:10:42;;;;;;;;;;;;;;;13.21;61.95;101894.13;4888951;28;97877;-69
2021/11/15 06:13:08;;;;;;;;;;;;;;;13.20;61.68;101903.31;4853153;28;98817;-68
2021/11/15 06:15:34;;;;;;;;;;;;;;;13.20;61.93;101897.91;4869799;28;112790;-67
2021/11/15 06:17:59;;;;;;;;;;;;;;;13.20;61.70;101903.31;4885956;28;125689;-68
2021/11/15 06:20:25;;;;;;;;;;;;;;;13.20;61.60;101905.19;4889540;28;98082;-69
2021/11/15 06:22:51;;;;;;;;;;;;;;;13.20;61.57;101899.75;4881496;28;127998;-68
2021/11/15 06:25:17;;;;;;;;;;;;;;;13.20;61.63;101905.19;4888444;28;127871;-68
2021/11/15 06:27:44;;;;;;;;;;;;;;;13.20;61.79;101907.88;4887645;28;99145;-68
2021/11/15 06:30:12;;;;;;;;;;;;;;;13.20;61.64;101905.19;4872355;28;97718;-67
2021/11/15 06:32:38;;;;;;;;;;;;;;;13.20;61.81;101914.16;4870097;28;123530;-68
2021/11/15 06:35:04;;;;;;;;;;;;;;;13.18;61.76;101913.56;4851839;28;121833;-68
2021/11/15 06:37:30;;;;;;;;;;;;;;;13.19;61.80;101920.63;4851744;28;118229;-68
2021/11/15 06:39:56;;;;;;;;;;;;;;;13.20;61.72;101914.16;4870558;28;97973;-67
2021/11/15 06:42:22;;;;;;;;;;;;;;;13.19;61.85;101923.31;4870265;28;101346;-68
2021/11/15 06:44:48;;;;;;;;;;;;;;;13.20;61.46;101933.09;4882458;28;127931;-68
2021/11/15 06:47:14;;;;;;;;;;;;;;;13.19;61.51;101934.16;4887478;28;98135;-68
2021/11/15 06:49:40;;;;;;;;;;;;;;;13.20;61.79;101927.69;4873793;28;120524;-59
2021/11/15 06:52:06;;;;;;;;;;;;;;;13.20;61.84;101935.81;4883310;28;112195;-59
2021/11/15 06:54:32;;;;;;;;;;;;;;;13.20;61.59;101941.22;4886441;28;119869;-68
2021/11/15 06:56:58;;;;;;;;;;;;;;;13.21;61.70;101932.03;4874954;28;127334;-69
2021/11/15 06:59:24;;;;;;;;;;;;;;;13.23;61.76;101934.50;4867873;28;123094;-59
2021/11/15 07:01:50;;;;;;;;;;;;;;;13.22;61.65;101939.06;4872460;28;98200;-60
2021/11/15 07:04:16;;;;;;;;;;;;;;;13.23;61.48;101929.09;4881810;28;98180;-69
2021/11/15 07:06:42;;;;;;;;;;;;;;;13.23;61.64;101932.59;4883426;28;126562;-59
2021/11/15 07:09:09;;;;;;;;;;;;;;;13.25;61.30;101935.91;4887339;28;99387;-68
2021/11/15 07:11:35;;;;;;;;;;;;;;;13.26;61.88;101939.44;4901410;28;104568;-59
2021/11/15 07:14:04;;;;;;;;;;;;;;;13.27;61.48;101941.06;4892974;28;98290;-68
2021/11/15 07:16:30;;;;;;;;;;;;;;;13.27;61.66;101932.94;4864814;28;123117;-59
2021/11/15 07:18:56;;;;;;;;;;;;;;;13.28;61.66;101934.56;4883470;28;116942;-68
2021/11/15 07:21:23;;;;;;;;;;;;;;;13.30;61.53;101928.91;4886053;28;97991;-59
2021/11/15 07:23:49;;;;;;;;;;;;;;;13.31;61.80;101925.94;4885837;28;98547;-58
2021/11/15 07:26:15;;;;;;;;;;;;;;;13.33;61.62;101931.94;4882809;28;124913;-68
2021/11/15 07:28:41;;;;;;;;;;;;;;;13.34;61.57;101928.16;4885731;28;123985;-68
2021/11/15 07:31:07;;;;;;;;;;;;;;;13.35;61.35;101929.78;4868048;28;127776;-59
2021/11/15 07:33:33;;;;;;;;;;;;;;;13.36;61.63;101934.16;4885016;28;98561;-59
2021/11/15 07:35:59;;;;;;;;;;;;;;;13.37;61.52;101935.78;4883449;28;103870;-59
2021/11/15 07:38:25;;;;;;;;;;;;;;;13.38;61.54;101931.19;4884800;28;121027;-59
2021/11/15 07:40:51;;;;;;;;;;;;;;;13.38;61.40;101931.19;4882036;28;127932;-59
2021/11/15 07:43:17;;;;;;;;;;;;;;;13.38;61.45;101937.44;4881931;28;128638;-59
2021/11/15 07:45:43;;;;;;;;;;;;;;;13.41;61.42;101930.69;4877411;28;99325;-59
2021/11/15 07:48:09;;;;;;;;;;;;;;;13.41;61.55;101936.13;4866062;28;97980;-58
2021/11/15 07:50:36;;;;;;;;;;;;;;;13.44;61.49;101938.31;4863368;28;99168;-58
2021/11/15 07:53:02;;;;;;;;;;;;;;;13.44;61.45;101938.31;4863460;28;97891;-58
2021/11/15 07:55:28;;;;;;;;;;;;;;;13.46;61.70;101933.47;4863214;28;98085;-58
2021/11/15 07:57:56;;;;;;;;;;;;;;;13.47;61.50;101926.97;4863656;28;121821;-59
2021/11/15 08:00:23;;;;;;;;;;;;;;;13.48;61.32;101931.34;4864467;28;97743;-58
2021/11/15 08:02:49;;;;;;;;;;;;;;;13.48;61.71;101932.16;4863691;28;99065;-58
2021/11/15 08:05:16;;;;;;;;;;;;;;;13.49;61.69;101935.69;4862866;28;127597;-58
2021/11/15 08:07:42;;;;;;;;;;;;;;;13.50;61.76;101932.69;4865000;28;98785;-58
2021/11/15 08:10:09;;;;;;;;;;;;;;;13.52;61.42;101932.47;4862728;28;114693;-59
2021/11/15 08:12:37;;;;;;;;;;;;;;;13.54;61.38;101927.59;4851491;28;98432;-58
2021/11/15 08:15:07;;;;;;;;;;;;;;;13.56;61.23;101927.34;4882922;28;98230;-59
2021/11/15 08:17:33;;;;;;;;;;;;;;;13.57;61.58;101929.81;4883645;28;97814;-58
2021/11/15 08:20:00;;;;;;;;;;;;;;;13.59;61.63;101929.56;4881098;28;101834;-58
2021/11/15 08:22:25;;;;;;;;;;;;;;;13.61;61.55;101932.84;4864769;28;99116;-58
2021/11/15 08:25:00;;;;;;;;;;;;;;;13.61;61.24;101930.13;4851505;28;116917;-58
2021/11/15 08:27:27;;;;;;;;;;;;;;;13.64;61.49;101937.75;4864483;28;97753;-58
2021/11/15 08:29:55;;;;;;;;;;;;;;;13.65;61.64;101931.28;4862909;28;99429;-58
2021/11/15 08:32:24;;;;;;;;;;;;;;;13.66;61.31;101928.28;4863337;28;98084;-59
2021/11/15 08:34:51;;;;;;;;;;;;;;;13.69;61.60;101932.41;4846327;28;98465;-58
2021/11/15 08:37:17;;;;;;;;;;;;;;;13.69;61.43;101933.22;4846473;28;97932;-58
2021/11/15 08:39:43;;;;;;;;;;;;;;;13.72;61.78;101934.63;4861746;28;127278;-58
2021/11/15 08:42:09;;;;;;;;;;;;;;;13.72;61.55;101929.19;4862613;28;126502;-58
2021/11/15 08:44:40;;;;;;;;;;;;;;;13.72;61.63;101921.06;4863497;28;109539;-58
2021/11/15 08:47:06;;;;;;;;;;;;;;;13.74;61.62;101930.56;4863871;28;97755;-58
2021/11/15 08:49:33;;;;;;;;;;;;;;;13.76;61.73;101924.91;4861942;28;126775;-58
2021/11/15 08:52:00;;;;;;;;;;;;;;;13.75;61.69;101921.38;4863336;28;99056;-59
2021/11/15 08:54:26;;;;;;;;;;;;;;;13.77;61.46;101926.53;4862812;28;98170;-58
2021/11/15 08:57:00;;;;;;;;;;;;;;;13.77;61.38;101923.81;4871781;28;99077;-58
2021/11/15 08:59:26;;;;;;;;;;;;;;;13.80;61.76;101919.78;4865214;28;98949;-58
2021/11/15 09:01:52;;;;;;;;;;;;;;;13.81;61.40;101921.44;4863793;28;98768;-68
2021/11/15 09:04:17;;;;;;;;;;;;;;;13.81;61.53;101924.13;4863801;28;120031;-59
2021/11/15 09:06:44;;;;;;;;;;;;;;;13.81;61.62;101935.78;4871020;28;123063;-59
2021/11/15 09:09:14;;;;;;;;;;;;;;;13.81;61.74;101933.09;4866193;28;98916;-67
2021/11/15 09:11:50;;;;;;;;;;;;;;;13.84;61.28;101937.19;4865940;28;98092;-58
2021/11/15 09:14:17;;;;;;;;;;;;;;;13.83;61.54;101933.63;4864693;28;98140;-67
2021/11/15 09:16:43;;;;;;;;;;;;;;;13.84;61.83;101935.28;4865769;28;97920;-58
2021/11/15 09:19:10;;;;;;;;;;;;;;;13.84;61.72;101927.16;4847424;28;118196;-58
2021/11/15 09:21:36;;;;;;;;;;;;;;;13.87;61.86;101933.94;4863788;28;122251;-68
2021/11/15 09:24:02;;;;;;;;;;;;;;;13.89;61.48;101948.06;4873175;28;98764;-68
2021/11/15 09:26:28;;;;;;;;;;;;;;;13.89;61.75;101942.66;4878953;28;115648;-58
2021/11/15 09:28:55;;;;;;;;;;;;;;;13.87;61.72;101931.22;4865029;28;126209;-67
2021/11/15 09:31:21;;;;;;;;;;;;;;;13.87;61.57;101940.22;4849147;28;98695;-68
2021/11/15 09:33:48;;;;;;;;;;;;;;;13.88;61.67;101933.72;4865155;28;98632;-68
2021/11/15 09:36:16;;;;;;;;;;;;;;;13.86;61.98;101932.31;4865703;28;116933;-67
2021/11/15 09:38:44;;;;;;;;;;;;;;;13.87;61.76;101932.09;4864971;28;97954;-59
2021/11/15 09:41:09;;;;;;;;;;;;;;;13.87;61.94;101932.09;4846092;28;98322;-59
2021/11/15 09:43:36;;;;;;;;;;;;;;;13.87;61.92;101928.53;4864711;28;98285;-67
2021/11/15 09:46:06;;;;;;;;;;;;;;;13.86;62.05;101927.72;4864657;28;97765;-59
2021/11/15 09:48:37;;;;;;;;;;;;;;;13.85;62.00;101930.69;4866241;28;97917;-58
2021/11/15 09:51:03;;;;;;;;;;;;;;;13.84;61.69;101929.88;4846238;28;98166;-58
2021/11/15 09:53:30;;;;;;;;;;;;;;;13.83;62.00;101928.22;4846628;28;98059;-58
2021/11/15 09:55:56;;;;;;;;;;;;;;;13.82;62.08;101923.88;4863814;28;101511;-59
2021/11/15 09:58:22;;;;;;;;;;;;;;;13.82;62.05;101933.91;4865646;28;101147;-58
2021/11/15 10:00:48;;;;;;;;;;;;;;;13.81;62.15;101916.81;4882042;28;98667;-58
2021/11/15 10:03:16;;;;;;;;;;;;;;;13.87;61.89;101914.97;4883340;28;119430;-58
2021/11/15 10:05:43;;;;;;;;;;;;;;;13.92;61.52;101915.06;4883811;28;118005;-58
2021/11/15 10:08:10;;;;;;;;;;;;;;;14.03;61.39;101914.09;4865364;28;99223;-67
2021/11/15 10:10:39;;;;;;;;;;;;;;;14.13;61.44;101910.66;4881888;28;98559;-68
2021/11/15 10:13:19;;;;;;;;;;;;;;;14.18;61.34;101908.78;4869375;28;98212;-67
2021/11/15 10:15:49;;;;;;;;;;;;;;;14.23;61.21;101913.47;4864257;28;98291;-67
2021/11/15 10:18:18;;;;;;;;;;;;;;;14.25;61.49;101903.97;4864829;28;107959;-58
2021/11/15 10:20:48;;;;;;;;;;;;;;;14.25;61.28;101906.69;4864443;28;117196;-58
2021/11/15 10:23:33;;;;;;;;;;;;;;;14.25;61.33;101903.16;4875095;28;98361;-67
2021/11/15 10:26:01;;;;;;;;;;;;;;;14.24;61.43;101915.09;4865762;28;115393;-59
2021/11/15 10:28:28;;;;;;;;;;;;;;;14.22;61.90;101909.91;4868736;28;98500;-58
2021/11/15 10:30:54;;;;;;;;;;;;;;;14.23;61.85;101902.63;4879762;28;97984;-60
2021/11/15 10:33:20;;;;;;;;;;;;;;;14.22;61.53;101900.97;4881010;28;98207;-59
2021/11/15 10:35:51;;;;;;;;;;;;;;;14.21;61.56;101892.00;4883397;28;97804;-58
2021/11/15 10:38:17;;;;;;;;;;;;;;;14.20;61.65;101898.53;4887491;28;99429;-59
2021/11/15 10:40:44;;;;;;;;;;;;;;;14.20;61.85;101895.00;4887013;28;98116;-68
2021/11/15 10:43:10;;;;;;;;;;;;;;;14.19;61.62;101896.88;4885193;28;97882;-58
2021/11/15 10:45:38;;;;;;;;;;;;;;;14.20;62.01;101903.13;4879053;28;98290;-58
2021/11/15 10:48:09;;;;;;;;;;;;;;;14.20;62.10;101900.41;4876202;28;98992;-68
2021/11/15 10:50:49;;;;;;;;;;;;;;;14.18;61.70;101906.06;4869957;28;98922;-67
2021/11/15 10:53:21;;;;;;;;;;;;;;;14.18;61.78;101895.22;4880839;28;98512;-58
2021/11/15 10:56:15;;;;;;;;;;;;;;;14.18;62.03;101894.41;4875737;28;97940;-59
2021/11/15 10:58:43;;;;;;;;;;;;;;;14.17;62.15;101896.31;4865434;28;98724;-59
2021/11/15 11:01:09;;;;;;;;;;;;;;;14.16;62.16;101894.69;4864010;28;102654;-58
2021/11/15 11:03:37;;;;;;;;;;;;;;;14.16;61.75;101885.75;4863997;28;98597;-59
2021/11/15 11:06:08;;;;;;;;;;;;;;;14.15;62.07;101892.25;4867893;28;98029;-59
2021/11/15 11:08:45;;;;;;;;;;;;;;;14.17;62.01;101888.19;4872564;28;98187;-59
2021/11/15 11:11:13;;;;;;;;;;;;;;;14.20;61.98;101892.28;4869030;28;98217;-58
2021/11/15 11:13:53;;;;;;;;;;;;;;;14.21;61.82;101894.72;4864576;28;98122;-58
2021/11/15 11:16:54;;;;;;;;;;;;;;;14.21;61.98;101889.31;4865895;28;97790;-58
2021/11/15 11:19:43;;;;;;;;;;;;;;;14.21;61.78;101886.59;4861406;28;98462;-58
2021/11/15 11:22:37;;;;;;;;;;;;;;;14.21;62.13;101881.16;4863417;28;98405;-58
2021/11/15 11:27:31;;;;;;;;;;;;;;;14.19;62.03;101882.53;4861258;28;98203;-58
2021/11/15 11:29:57;;;;;;;;;;;;;;;14.18;61.83;101889.00;4864026;28;125305;-59
2021/11/15 11:32:25;;;;;;;;;;;;;;;14.17;62.04;101881.94;4865050;28;98789;-64
2021/11/15 11:34:52;;;;;;;;;;;;;;;14.16;62.23;101886.56;4865410;28;98815;-59
2021/11/15 11:37:19;;;;;;;;;;;;;;;14.17;61.99;101884.66;4867092;28;97773;-67
2021/11/15 11:39:46;;;;;;;;;;;;;;;14.15;61.82;101884.13;4866819;28;97815;-58
2021/11/15 11:42:14;;;;;;;;;;;;;;;14.15;62.00;101870.56;4867089;28;118875;-67
2021/11/15 11:44:40;;;;;;;;;;;;;;;14.17;62.05;101874.63;4865963;28;99187;-58
2021/11/15 11:47:07;;;;;;;;;;;;;;;14.16;62.33;101864.84;4865200;28;114683;-67
2021/11/15 11:49:34;;;;;;;;;;;;;;;14.18;61.94;101861.88;4867564;28;108791;-68
2021/11/15 11:52:03;;;;;;;;;;;;;;;14.17;61.92;101860.25;4849381;28;123650;-68
2021/11/15 11:54:40;;;;;;;;;;;;;;;14.19;62.11;101868.97;4865492;28;99978;-59
2021/11/15 11:57:09;;;;;;;;;;;;;;;14.17;62.18;101861.06;4866667;28;97754;-58
2021/11/15 11:59:44;;;;;;;;;;;;;;;14.18;61.94;101868.13;4866285;28;98600;-67
2021/11/15 12:02:13;;;;;;;;;;;;;;;14.17;62.24;101863.78;4866073;28;98917;-67
2021/11/15 12:05:04;;;;;;;;;;;;;;;14.16;61.88;101862.16;4866324;28;97767;-67
2021/11/15 12:07:38;;;;;;;;;;;;;;;14.17;61.98;101866.50;4866721;28;97988;-58
2021/11/15 12:10:11;;;;;;;;;;;;;;;14.17;61.91;101860.25;4866868;28;98944;-58
2021/11/15 12:12:52;;;;;;;;;;;;;;;14.18;62.05;101864.59;4879998;28;98470;-58
2021/11/15 12:15:39;;;;;;;;;;;;;;;14.19;61.87;101860.81;4885180;28;98251;-59
2021/11/15 12:18:24;;;;;;;;;;;;;;;14.23;62.24;101859.22;4885999;28;99139;-68
2021/11/15 12:21:05;;;;;;;;;;;;;;;14.25;62.03;101857.88;4870272;28;98215;-68
2021/11/15 12:23:32;;;;;;;;;;;;;;;14.27;62.11;101860.34;4884049;28;98571;-67
2021/11/15 12:26:17;;;;;;;;;;;;;;;14.29;61.71;101863.59;4887260;28;98052;-68
2021/11/15 12:28:47;;;;;;;;;;;;;;;14.29;61.95;101860.09;4866841;28;97807;-67
2021/11/15 12:31:14;;;;;;;;;;;;;;;14.29;62.17;101854.66;4865328;28;100245;-67
2021/11/15 12:33:42;;;;;;;;;;;;;;;14.30;61.98;101853.56;4864260;28;99085;-58
2021/11/15 12:36:13;;;;;;;;;;;;;;;14.29;62.15;101857.38;4867899;28;97869;-68
2021/11/15 12:38:53;;;;;;;;;;;;;;;14.29;62.16;101860.91;4864409;28;98425;-58